Time;durP1;ratioP1;P1;durP2;ratioP2;P2;SDS_P1;SDS_P2;PMS_P1;PMS_P2;Temp;Humidity;BMP_temperature;BMP_pressure;BME280_temperature;BME280_humidity;BME280_pressure;Samples;Min_cycle;Max_cycle;Signal;HPM_P1;HPM_P2
2022/10/06 00:01:31;;;;;;;3.60;2.73;;;16.00;99.90;;;;;;5116782;27;20576;-74
2022/10/06 00:03:58;;;;;;;2.63;2.43;;;16.00;99.90;;;;;;5128289;27;20202;-73
2022/10/06 00:06:25;;;;;;;2.50;2.40;;;16.00;99.90;;;;;;5110518;27;20218;-74
2022/10/06 00:08:53;;;;;;;2.43;2.23;;;15.90;99.90;;;;;;5108902;28;20206;-74
2022/10/06 00:11:19;;;;;;;4.07;2.50;;;15.90;99.90;;;;;;5108963;28;20206;-74
2022/10/06 00:13:46;;;;;;;2.70;2.50;;;15.90;99.90;;;;;;5108717;28;20244;-74
2022/10/06 00:16:16;;;;;;;2.17;2.07;;;15.80;99.90;;;;;;5109220;28;20201;-73
2022/10/06 00:18:43;;;;;;;3.17;2.30;;;15.80;99.90;;;;;;5108734;28;20725;-74
2022/10/06 00:21:10;;;;;;;2.90;2.70;;;15.80;99.90;;;;;;5112035;27;20209;-75
2022/10/06 00:23:37;;;;;;;2.63;2.53;;;15.80;99.90;;;;;;5129308;27;20251;-75
2022/10/06 00:26:05;;;;;;;2.97;2.60;;;15.80;99.90;;;;;;5128832;27;20685;-75
2022/10/06 00:28:32;;;;;;;2.53;2.37;;;15.80;99.90;;;;;;5129233;27;20220;-74
2022/10/06 00:31:01;;;;;;;3.20;2.43;;;15.80;99.90;;;;;;5129261;27;20202;-74
2022/10/06 00:33:28;;;;;;;2.37;2.20;;;15.70;99.90;;;;;;5129123;27;20201;-74
2022/10/06 00:35:59;;;;;;;2.80;2.60;;;15.80;99.90;;;;;;5112126;27;20206;-73
2022/10/06 00:38:26;;;;;;;4.03;2.80;;;15.80;99.90;;;;;;5108113;28;20687;-73
2022/10/06 00:40:53;;;;;;;3.80;2.50;;;15.80;99.90;;;;;;5107466;28;20213;-73
2022/10/06 00:43:48;;;;;;;2.73;2.53;;;15.80;99.90;;;;;;5122166;27;20229;-73
2022/10/06 00:46:30;;;;;;;3.13;2.50;;;15.90;99.90;;;;;;5129280;27;20502;-73
2022/10/06 00:49:00;;;;;;;3.37;2.50;;;16.00;99.90;;;;;;5110545;27;20190;-73
2022/10/06 00:51:30;;;;;;;2.50;2.30;;;16.00;99.90;;;;;;5114299;27;20213;-73
2022/10/06 00:53:57;;;;;;;3.03;2.40;;;16.00;99.90;;;;;;5128424;27;20664;-74
2022/10/06 00:56:24;;;;;;;3.00;2.70;;;16.00;99.90;;;;;;5129180;27;20205;-74
2022/10/06 00:58:53;;;;;;;4.23;2.83;;;16.10;99.90;;;;;;5115338;27;20202;-74
2022/10/06 01:01:19;;;;;;;3.53;2.53;;;16.00;99.90;;;;;;5120867;27;20688;-74
2022/10/06 01:03:53;;;;;;;2.50;2.30;;;16.00;99.90;;;;;;5108331;28;20217;-74
2022/10/06 01:06:20;;;;;;;3.93;2.60;;;16.10;99.90;;;;;;5108252;28;20210;-73
2022/10/06 01:08:47;;;;;;;3.10;2.80;;;16.10;99.90;;;;;;5108166;28;20194;-73
2022/10/06 01:11:14;;;;;;;2.53;2.40;;;16.10;99.90;;;;;;5107842;28;20205;-73
2022/10/06 01:13:44;;;;;;;2.60;2.40;;;16.00;99.90;;;;;;5107631;28;20589;-73
2022/10/06 01:16:18;;;;;;;2.90;2.30;;;16.00;99.90;;;;;;5108417;28;20194;-73
2022/10/06 01:18:47;;;;;;;2.77;2.47;;;16.00;99.90;;;;;;5108145;28;20187;-73
2022/10/06 01:21:21;;;;;;;2.90;2.70;;;15.90;99.90;;;;;;5108384;28;20237;-75
2022/10/06 01:23:49;;;;;;;2.57;2.27;;;16.00;99.90;;;;;;5107891;28;20201;-75
2022/10/06 01:26:19;;;;;;;2.67;2.47;;;16.00;99.90;;;;;;5107928;28;20664;-74
2022/10/06 01:28:47;;;;;;;2.83;2.20;;;16.00;99.90;;;;;;5124315;28;20204;-72
2022/10/06 01:31:14;;;;;;;3.50;2.10;;;16.00;99.90;;;;;;5107944;28;20206;-73
2022/10/06 01:33:41;;;;;;;2.47;2.23;;;16.00;99.90;;;;;;5107928;28;20206;-72
2022/10/06 01:36:08;;;;;;;4.23;2.40;;;16.00;99.90;;;;;;5126832;28;20205;-72
2022/10/06 01:38:36;;;;;;;2.67;2.47;;;16.10;99.90;;;;;;5123052;28;20206;-73
2022/10/06 01:41:04;;;;;;;2.57;2.37;;;16.00;99.90;;;;;;5107310;28;20229;-74
2022/10/06 01:43:31;;;;;;;2.60;2.40;;;16.00;99.90;;;;;;5107705;28;20222;-73
2022/10/06 01:45:58;;;;;;;2.20;2.00;;;15.90;99.90;;;;;;5117400;28;20202;-72
2022/10/06 01:48:25;;;;;;;3.57;2.10;;;16.00;99.90;;;;;;5116247;28;20202;-72
2022/10/06 01:50:52;;;;;;;2.77;2.43;;;15.90;99.90;;;;;;5107770;28;20229;-73
2022/10/06 01:53:19;;;;;;;2.60;2.40;;;15.90;99.90;;;;;;5123840;27;20204;-73
2022/10/06 01:55:46;;;;;;;2.20;2.10;;;15.90;99.90;;;;;;5131934;27;20205;-72
2022/10/06 01:58:14;;;;;;;2.43;2.23;;;15.90;99.90;;;;;;5131742;27;20206;-72
2022/10/06 02:00:41;;;;;;;2.73;2.37;;;15.90;99.90;;;;;;5131813;27;20232;-72
2022/10/06 02:03:08;;;;;;;3.10;2.13;;;15.90;99.90;;;;;;5120380;27;20230;-72
2022/10/06 02:05:35;;;;;;;3.30;2.43;;;15.90;99.90;;;;;;5111446;28;20202;-72
2022/10/06 02:08:02;;;;;;;2.40;2.20;;;16.00;99.90;;;;;;5117171;27;20212;-72
2022/10/06 02:10:30;;;;;;;2.60;2.50;;;15.90;99.90;;;;;;5131767;27;20201;-72
2022/10/06 02:12:56;;;;;;;3.43;2.30;;;16.00;99.90;;;;;;5131476;27;20201;-72
2022/10/06 02:15:26;;;;;;;2.67;2.47;;;16.00;99.90;;;;;;5131863;27;20189;-72
2022/10/06 02:17:54;;;;;;;2.50;2.40;;;16.00;99.90;;;;;;5131861;27;20258;-73
2022/10/06 02:20:21;;;;;;;3.67;2.37;;;15.90;99.90;;;;;;5131377;27;20245;-70
2022/10/06 02:22:47;;;;;;;3.10;2.90;;;15.90;99.90;;;;;;5114244;27;20741;-73
2022/10/06 02:25:16;;;;;;;2.90;2.33;;;15.90;99.90;;;;;;5110178;28;20214;-73
2022/10/06 02:27:43;;;;;;;3.00;2.27;;;15.90;99.90;;;;;;5123557;27;20207;-73
2022/10/06 02:30:11;;;;;;;2.53;2.33;;;15.90;99.90;;;;;;5109123;28;20210;-73
2022/10/06 02:32:41;;;;;;;3.90;2.33;;;15.90;99.90;;;;;;5108423;28;20668;-73
2022/10/06 02:35:10;;;;;;;3.20;2.53;;;15.90;99.90;;;;;;5119197;27;20277;-73
2022/10/06 02:37:36;;;;;;;3.23;2.53;;;15.90;99.90;;;;;;5129217;27;20591;-73
2022/10/06 02:40:04;;;;;;;4.53;2.57;;;15.90;99.90;;;;;;5129155;27;20259;-74
2022/10/06 02:42:31;;;;;;;2.77;2.50;;;15.90;99.90;;;;;;5128827;27;20225;-74
2022/10/06 02:44:58;;;;;;;2.87;2.77;;;15.80;99.90;;;;;;5128945;27;20209;-73
2022/10/06 02:47:25;;;;;;;3.13;2.30;;;15.80;99.90;;;;;;5127388;27;20208;-73
2022/10/06 02:49:53;;;;;;;3.90;2.60;;;15.80;99.90;;;;;;5125503;27;20217;-73
2022/10/06 02:52:20;;;;;;;3.13;2.50;;;15.80;99.90;;;;;;5128632;27;20202;-72
2022/10/06 02:54:46;;;;;;;2.73;2.53;;;15.80;99.90;;;;;;5113227;27;20217;-72
2022/10/06 02:57:14;;;;;;;3.97;3.00;;;15.80;99.90;;;;;;5108226;28;20206;-72
2022/10/06 02:59:42;;;;;;;2.90;2.70;;;15.80;99.90;;;;;;5109748;27;20202;-73
2022/10/06 03:02:09;;;;;;;2.57;2.37;;;15.80;99.90;;;;;;5108659;28;20238;-72
2022/10/06 03:04:35;;;;;;;2.73;2.53;;;15.80;99.90;;;;;;5122590;27;20202;-73
2022/10/06 03:07:03;;;;;;;3.60;2.53;;;15.80;99.90;;;;;;5129223;27;20203;-73
2022/10/06 03:09:30;;;;;;;2.53;2.40;;;15.80;99.90;;;;;;5112145;27;20213;-73
2022/10/06 03:11:57;;;;;;;5.30;2.50;;;15.90;99.90;;;;;;5108889;28;20206;-73
2022/10/06 03:14:24;;;;;;;2.83;2.63;;;15.90;99.90;;;;;;5108170;28;20237;-73
2022/10/06 03:16:51;;;;;;;2.37;2.17;;;15.90;99.90;;;;;;5108849;28;20201;-73
2022/10/06 03:19:18;;;;;;;4.20;2.33;;;15.90;99.90;;;;;;5109171;28;20206;-73
2022/10/06 03:21:44;;;;;;;2.30;2.10;;;15.90;99.90;;;;;;5116764;27;20209;-73
2022/10/06 03:24:13;;;;;;;3.17;2.30;;;16.00;99.90;;;;;;5129530;27;20225;-73
2022/10/06 03:26:41;;;;;;;2.53;2.40;;;16.00;99.90;;;;;;5130597;27;20213;-73
2022/10/06 03:29:08;;;;;;;2.40;2.20;;;16.10;99.90;;;;;;5130527;27;20205;-73
2022/10/06 03:31:35;;;;;;;3.27;2.40;;;16.20;99.90;;;;;;5120497;27;20213;-73
2022/10/06 03:34:03;;;;;;;2.57;2.37;;;16.20;99.90;;;;;;5109671;28;20575;-73
2022/10/06 03:36:32;;;;;;;2.60;2.30;;;16.30;99.90;;;;;;5109759;28;20202;-73
2022/10/06 03:38:59;;;;;;;2.70;2.50;;;16.30;99.90;;;;;;5109547;28;20260;-73
2022/10/06 03:41:29;;;;;;;2.60;2.40;;;16.30;99.90;;;;;;5109067;28;20206;-73
2022/10/06 03:43:57;;;;;;;2.63;2.50;;;16.20;99.90;;;;;;5109035;28;20738;-73
2022/10/06 03:46:26;;;;;;;2.63;2.13;;;16.20;99.90;;;;;;5117218;27;20205;-73
2022/10/06 03:48:54;;;;;;;2.90;2.10;;;16.20;99.90;;;;;;5112625;27;20198;-73
2022/10/06 03:51:22;;;;;;;2.67;2.47;;;16.20;99.90;;;;;;5116099;27;20294;-73
2022/10/06 03:53:50;;;;;;;2.20;2.10;;;16.20;99.90;;;;;;5129685;27;20205;-73
2022/10/06 03:56:22;;;;;;;2.43;2.10;;;16.20;99.90;;;;;;5129628;27;20208;-73
2022/10/06 03:58:53;;;;;;;2.57;2.10;;;16.20;99.90;;;;;;5129600;27;20208;-73
2022/10/06 04:01:21;;;;;;;2.97;2.17;;;16.20;99.90;;;;;;5129907;27;20239;-73
2022/10/06 04:03:48;;;;;;;2.47;2.27;;;16.10;99.90;;;;;;5129570;27;20239;-73
2022/10/06 04:06:17;;;;;;;2.27;2.17;;;16.10;99.90;;;;;;5129610;27;20205;-73
2022/10/06 04:08:45;;;;;;;2.10;1.90;;;16.10;99.90;;;;;;5129058;27;20606;-73
2022/10/06 04:11:15;;;;;;;1.70;1.60;;;16.20;99.90;;;;;;5129044;27;20213;-73
2022/10/06 04:13:43;;;;;;;1.57;1.47;;;16.10;99.90;;;;;;5129262;27;20242;-73
2022/10/06 04:16:15;;;;;;;1.50;1.40;;;16.10;99.90;;;;;;5128854;27;20600;-73
2022/10/06 04:18:43;;;;;;;1.80;1.70;;;16.10;99.90;;;;;;5129222;27;20204;-73
2022/10/06 04:21:10;;;;;;;2.57;1.80;;;16.10;99.90;;;;;;5129119;27;20683;-73
2022/10/06 04:23:37;;;;;;;1.77;1.40;;;16.10;99.90;;;;;;5129250;27;20229;-73
2022/10/06 04:26:08;;;;;;;1.40;1.30;;;16.10;99.90;;;;;;5129299;27;20209;-73
2022/10/06 04:28:36;;;;;;;1.47;1.37;;;16.10;99.90;;;;;;5129412;27;20196;-73
2022/10/06 04:31:04;;;;;;;1.60;1.47;;;16.10;99.90;;;;;;5129096;27;20254;-73
2022/10/06 04:33:33;;;;;;;2.10;1.57;;;16.10;99.90;;;;;;5128999;27;20602;-73
2022/10/06 04:36:01;;;;;;;2.03;1.13;;;16.10;99.90;;;;;;5129208;27;20297;-73
2022/10/06 04:38:28;;;;;;;2.00;1.40;;;16.10;99.90;;;;;;5128940;27;20205;-73
2022/10/06 04:40:56;;;;;;;2.00;1.13;;;16.10;99.90;;;;;;5128631;27;20201;-73
2022/10/06 04:43:23;;;;;;;1.20;0.80;;;16.00;99.90;;;;;;5115660;27;20241;-73
2022/10/06 04:45:56;;;;;;;0.77;0.60;;;16.00;99.90;;;;;;5114573;27;20202;-73
2022/10/06 04:48:23;;;;;;;0.63;0.43;;;16.00;99.90;;;;;;5108083;28;20191;-73
2022/10/06 04:50:55;;;;;;;0.50;0.50;;;15.90;99.90;;;;;;5108336;27;20233;-73
2022/10/06 04:53:22;;;;;;;0.50;0.50;;;15.90;99.90;;;;;;5128863;27;20639;-73
2022/10/06 04:55:58;;;;;;;0.70;0.50;;;15.90;99.90;;;;;;5128203;27;20198;-73
2022/10/06 04:58:24;;;;;;;0.70;0.40;;;15.90;99.90;;;;;;5128695;27;20679;-73
2022/10/06 05:00:51;;;;;;;0.60;0.43;;;15.90;99.90;;;;;;5128390;27;20573;-73
2022/10/06 05:03:18;;;;;;;0.50;0.47;;;15.90;99.90;;;;;;5128818;27;20274;-73
2022/10/06 05:05:45;;;;;;;0.20;0.20;;;15.90;99.90;;;;;;5125628;27;20205;-73
2022/10/06 05:08:13;;;;;;;0.50;0.50;;;15.90;99.90;;;;;;5127766;27;20656;-73
2022/10/06 05:10:40;;;;;;;1.00;0.40;;;15.80;99.90;;;;;;5128267;27;20379;-73
2022/10/06 05:13:08;;;;;;;1.57;0.60;;;15.80;99.90;;;;;;5128583;27;20352;-73
2022/10/06 05:15:35;;;;;;;0.40;0.40;;;15.80;99.90;;;;;;5128951;27;20201;-73
2022/10/06 05:18:01;;;;;;;0.50;0.50;;;15.80;99.90;;;;;;5128167;27;20675;-73
2022/10/06 05:20:28;;;;;;;0.60;0.60;;;15.70;99.90;;;;;;5128840;27;20206;-73
2022/10/06 05:22:55;;;;;;;0.50;0.40;;;15.70;99.90;;;;;;5128350;28;20244;-73
2022/10/06 05:25:23;;;;;;;1.37;0.37;;;15.70;99.90;;;;;;5128037;27;20217;-73
2022/10/06 05:27:50;;;;;;;0.87;0.40;;;15.70;99.90;;;;;;5127922;28;20730;-73
2022/10/06 05:30:17;;;;;;;0.93;0.30;;;15.60;99.90;;;;;;5128619;28;20202;-73
2022/10/06 05:32:49;;;;;;;1.63;0.30;;;15.60;99.90;;;;;;5128471;28;20537;-73
2022/10/06 05:35:16;;;;;;;1.97;0.50;;;15.60;99.90;;;;;;5128250;28;20207;-73
2022/10/06 05:37:42;;;;;;;0.93;0.40;;;15.60;99.90;;;;;;5128362;28;20212;-73
2022/10/06 05:40:10;;;;;;;1.70;0.43;;;15.50;99.90;;;;;;5110887;28;20566;-73
2022/10/06 05:42:39;;;;;;;1.13;0.50;;;15.50;99.90;;;;;;5113694;28;20206;-73
2022/10/06 05:45:07;;;;;;;0.97;0.40;;;15.40;99.90;;;;;;5107567;28;20212;-73
2022/10/06 05:47:33;;;;;;;0.50;0.30;;;15.40;99.90;;;;;;5107713;28;20217;-73
2022/10/06 05:50:00;;;;;;;0.87;0.63;;;15.30;99.90;;;;;;5107169;28;20638;-73
2022/10/06 05:52:27;;;;;;;0.83;0.30;;;15.30;99.90;;;;;;5121485;28;20212;-73
2022/10/06 05:54:54;;;;;;;1.83;0.57;;;15.30;99.90;;;;;;5128148;28;21091;-73
2022/10/06 05:57:21;;;;;;;0.27;0.20;;;15.20;99.90;;;;;;5128044;28;20205;-73
2022/10/06 05:59:49;;;;;;;0.83;0.50;;;15.20;99.90;;;;;;5128004;28;20205;-73
2022/10/06 06:02:16;;;;;;;0.37;0.37;;;15.10;99.90;;;;;;5127839;28;20209;-73
2022/10/06 06:04:42;;;;;;;0.77;0.40;;;15.10;99.90;;;;;;5127660;28;20229;-73
2022/10/06 06:07:10;;;;;;;1.03;0.50;;;15.10;99.90;;;;;;5127810;28;20212;-72
2022/10/06 06:09:36;;;;;;;1.90;0.50;;;15.00;99.90;;;;;;5127901;28;20212;-73
2022/10/06 06:12:04;;;;;;;0.77;0.30;;;15.00;99.90;;;;;;5127874;28;20202;-73
2022/10/06 06:17:19;;;;;;;0.77;0.33;;;14.90;99.90;;;;;;5128134;28;21098;-73
2022/10/06 06:19:45;;;;;;;0.33;0.30;;;14.90;99.90;;;;;;5127729;28;20967;-73
2022/10/06 06:22:12;;;;;;;0.90;0.47;;;14.90;99.90;;;;;;5127783;28;20292;-73
2022/10/06 06:24:39;;;;;;;0.47;0.20;;;14.90;99.90;;;;;;5127663;28;20316;-73
2022/10/06 06:27:06;;;;;;;2.43;0.60;;;14.90;99.90;;;;;;5127655;28;20215;-73
2022/10/06 06:29:33;;;;;;;0.30;0.30;;;14.90;99.90;;;;;;5127828;28;20206;-73
2022/10/06 06:31:59;;;;;;;2.03;0.43;;;15.00;99.90;;;;;;5127596;28;20209;-73
2022/10/06 06:34:28;;;;;;;1.27;0.43;;;14.90;99.90;;;;;;5123813;28;20205;-73
2022/10/06 06:36:57;;;;;;;0.50;0.40;;;14.90;99.90;;;;;;5127450;27;20963;-73
2022/10/06 06:39:24;;;;;;;0.43;0.43;;;15.00;99.90;;;;;;5124013;27;20213;-73
2022/10/06 06:41:52;;;;;;;1.07;0.30;;;15.00;99.90;;;;;;5123255;27;20210;-73
2022/10/06 06:44:20;;;;;;;1.67;0.50;;;15.00;99.90;;;;;;5110774;28;20565;-73
2022/10/06 06:46:48;;;;;;;1.80;0.70;;;15.00;99.90;;;;;;5110612;28;20725;-73
2022/10/06 06:49:15;;;;;;;1.67;0.70;;;15.10;99.90;;;;;;5110369;28;20214;-73
2022/10/06 06:51:48;;;;;;;2.27;0.50;;;15.00;99.90;;;;;;5118064;27;20209;-73
2022/10/06 06:54:15;;;;;;;2.53;0.67;;;15.00;99.90;;;;;;5130945;27;20194;-72
2022/10/06 06:56:44;;;;;;;5.33;0.70;;;14.90;99.90;;;;;;5131028;27;20213;-72
2022/10/06 06:59:12;;;;;;;2.73;0.80;;;14.90;99.90;;;;;;5131043;27;20716;-72
2022/10/06 07:01:43;;;;;;;1.97;0.67;;;14.80;99.90;;;;;;5131241;27;20210;-73
2022/10/06 07:04:11;;;;;;;2.83;0.83;;;14.90;99.90;;;;;;5131142;27;20221;-72
2022/10/06 07:06:39;;;;;;;1.57;0.90;;;14.90;99.90;;;;;;5130999;27;20205;-73
2022/10/06 07:09:09;;;;;;;1.50;0.60;;;15.00;99.90;;;;;;5130682;27;20205;-73
2022/10/06 07:11:37;;;;;;;2.90;0.60;;;15.10;99.90;;;;;;5130580;27;20209;-73
2022/10/06 07:14:05;;;;;;;0.63;0.40;;;15.20;99.90;;;;;;5130277;27;20237;-73
2022/10/06 07:25:10;;;;;;;0.63;0.47;;;15.30;99.90;;;;;;5109951;28;20237;-73
2022/10/06 07:27:40;;;;;;;1.80;0.57;;;15.40;99.90;;;;;;5110109;28;20213;-73
2022/10/06 07:30:08;;;;;;;3.50;1.20;;;15.30;99.90;;;;;;5110139;28;20213;-73
2022/10/06 07:32:36;;;;;;;1.97;0.90;;;15.40;99.90;;;;;;5126668;27;20202;-73
2022/10/06 07:35:05;;;;;;;1.63;0.60;;;15.40;99.90;;;;;;5122890;27;20206;-73
2022/10/06 07:37:33;;;;;;;2.73;0.97;;;15.40;99.90;;;;;;5112489;27;20299;-73
2022/10/06 07:40:02;;;;;;;1.63;0.57;;;15.40;99.90;;;;;;5130025;27;20213;-73
2022/10/06 07:42:29;;;;;;;5.80;1.17;;;15.40;99.90;;;;;;5129868;27;20209;-73
2022/10/06 07:47:40;;;;;;;3.30;1.00;;;15.30;99.90;;;;;;5129828;27;20273;-73
2022/10/06 07:50:08;;;;;;;3.23;1.00;;;15.40;99.90;;;;;;5112182;27;20214;-73
2022/10/06 07:52:37;;;;;;;3.50;1.13;;;15.40;99.90;;;;;;5124599;27;20220;-73
2022/10/06 07:55:07;;;;;;;2.50;1.40;;;15.30;99.90;;;;;;5129452;27;20580;-73
2022/10/06 07:57:34;;;;;;;3.73;1.07;;;15.30;99.90;;;;;;5129586;27;20213;-73
2022/10/06 08:00:04;;;;;;;4.37;1.40;;;15.40;99.90;;;;;;5129190;27;20202;-73
2022/10/06 08:02:31;;;;;;;2.37;0.97;;;15.50;99.90;;;;;;5129461;27;20663;-73
2022/10/06 08:04:57;;;;;;;4.63;1.00;;;15.60;99.90;;;;;;5129350;27;20237;-73
2022/10/06 08:07:24;;;;;;;3.97;1.50;;;15.50;99.90;;;;;;5129703;27;20215;-73
2022/10/06 08:09:51;;;;;;;3.73;1.13;;;15.60;99.90;;;;;;5129745;27;20236;-73
2022/10/06 08:12:36;;;;;;;2.73;1.87;;;15.60;99.90;;;;;;5124324;27;20589;-73
2022/10/06 08:15:05;;;;;;;1.00;0.80;;;15.60;99.90;;;;;;5108363;28;20318;-73
2022/10/06 08:17:33;;;;;;;5.40;1.57;;;15.70;99.90;;;;;;5108964;28;20224;-73
2022/10/06 08:19:59;;;;;;;1.63;1.20;;;15.80;99.90;;;;;;5108720;28;20245;-73
2022/10/06 08:22:28;;;;;;;3.07;1.17;;;15.90;99.90;;;;;;5108768;28;20210;-73
2022/10/06 08:24:56;;;;;;;2.87;1.20;;;15.90;99.90;;;;;;5108635;28;20257;-73
2022/10/06 08:27:24;;;;;;;2.23;0.97;;;16.00;99.90;;;;;;5108740;28;20263;-73
2022/10/06 08:29:51;;;;;;;2.73;1.60;;;16.10;99.90;;;;;;5109900;27;20210;-73
2022/10/06 08:32:19;;;;;;;4.97;0.93;;;16.20;99.90;;;;;;5128963;27;20213;-73
2022/10/06 08:34:46;;;;;;;3.50;1.40;;;16.20;99.90;;;;;;5128895;27;20205;-73
2022/10/06 08:37:13;;;;;;;2.40;1.10;;;16.40;99.90;;;;;;5128771;27;20201;-73
2022/10/06 08:39:41;;;;;;;5.40;1.50;;;16.40;99.90;;;;;;5129098;27;20206;-73
2022/10/06 08:42:14;;;;;;;2.63;1.30;;;16.40;99.90;;;;;;5128803;27;20212;-73
2022/10/06 08:44:47;;;;;;;3.47;1.50;;;16.40;99.90;;;;;;5128457;27;20688;-73
2022/10/06 08:47:18;;;;;;;3.43;1.23;;;16.30;99.90;;;;;;5128788;27;20189;-73
2022/10/06 08:49:46;;;;;;;3.67;1.23;;;16.20;99.90;;;;;;5114358;27;20312;-73
2022/10/06 08:52:25;;;;;;;4.93;1.50;;;16.30;99.90;;;;;;5119905;27;20802;-73
2022/10/06 08:55:03;;;;;;;4.90;1.37;;;16.30;99.90;;;;;;5128813;27;20201;-73
2022/10/06 08:57:36;;;;;;;2.87;1.00;;;16.40;99.90;;;;;;5128890;27;20208;-73
2022/10/06 09:00:11;;;;;;;5.30;1.90;;;16.40;99.90;;;;;;5128603;27;20190;-73
2022/10/06 09:02:44;;;;;;;2.07;1.40;;;16.30;99.90;;;;;;5128418;27;20197;-73
2022/10/06 09:05:14;;;;;;;5.30;1.50;;;16.10;99.90;;;;;;5128575;27;20315;-73
2022/10/06 09:07:53;;;;;;;3.83;1.23;;;16.00;99.90;;;;;;5128411;27;20212;-73
2022/10/06 09:10:31;;;;;;;3.23;1.17;;;16.00;99.90;;;;;;5128254;27;20579;-73
2022/10/06 09:13:05;;;;;;;3.90;1.70;;;16.10;99.90;;;;;;5128359;27;20193;-73
2022/10/06 09:15:39;;;;;;;6.23;1.60;;;16.20;99.90;;;;;;5128685;27;20197;-73
2022/10/06 09:18:12;;;;;;;3.27;1.40;;;16.40;99.90;;;;;;5128385;27;20189;-73
2022/10/06 09:20:43;;;;;;;3.37;1.37;;;16.60;99.90;;;;;;5128542;27;20189;-73
2022/10/06 09:23:14;;;;;;;1.57;0.90;;;16.70;99.90;;;;;;5128438;27;20208;-73
2022/10/06 09:25:41;;;;;;;3.83;1.47;;;16.70;99.90;;;;;;5127978;28;20679;-73
2022/10/06 09:28:14;;;;;;;3.57;1.30;;;16.70;99.90;;;;;;5115889;28;20213;-73
2022/10/06 09:30:42;;;;;;;4.37;1.63;;;16.90;99.90;;;;;;5116277;28;20205;-73
2022/10/06 09:33:18;;;;;;;6.97;1.27;;;16.90;99.90;;;;;;5128388;28;20703;-73
2022/10/06 09:36:05;;;;;;;3.87;1.50;;;17.00;99.90;;;;;;5112971;28;20206;-73
2022/10/06 09:38:47;;;;;;;2.83;1.40;;;17.00;99.90;;;;;;5107974;28;20405;-73
2022/10/06 09:41:15;;;;;;;6.33;2.50;;;17.00;99.90;;;;;;5107380;28;20594;-73
2022/10/06 09:43:52;;;;;;;5.23;1.33;;;16.90;99.90;;;;;;5107632;28;20205;-73
2022/10/06 09:46:23;;;;;;;2.90;1.27;;;17.00;99.90;;;;;;5107610;28;20216;-73
2022/10/06 09:49:07;;;;;;;5.63;1.37;;;17.10;99.90;;;;;;5107468;28;20222;-73
2022/10/06 09:51:36;;;;;;;6.47;1.33;;;17.30;99.90;;;;;;5113901;28;20558;-73
2022/10/06 09:54:13;;;;;;;4.47;1.60;;;17.50;99.90;;;;;;5127897;28;20223;-74
2022/10/06 09:56:42;;;;;;;5.10;1.30;;;17.70;99.90;;;;;;5128067;28;20193;-73
2022/10/06 09:59:20;;;;;;;3.43;1.27;;;17.80;99.90;;;;;;5127981;28;20205;-73
2022/10/06 10:01:54;;;;;;;3.70;1.73;;;17.60;99.90;;;;;;5127747;28;20190;-73
2022/10/06 10:04:25;;;;;;;3.53;1.60;;;17.60;99.90;;;;;;5127900;28;20308;-73
2022/10/06 10:06:53;;;;;;;2.77;0.93;;;17.60;99.90;;;;;;5127949;28;20295;-73
2022/10/06 10:09:25;;;;;;;4.47;1.57;;;17.40;99.90;;;;;;5127981;28;20209;-73
2022/10/06 10:12:27;;;;;;;2.63;1.10;;;17.30;99.90;;;;;;5127491;27;20190;-73
2022/10/06 10:14:59;;;;;;;4.10;1.20;;;17.30;99.90;;;;;;5116792;27;20240;-73
2022/10/06 10:17:38;;;;;;;5.67;1.40;;;17.50;99.90;;;;;;5131866;27;20196;-73
2022/10/06 10:20:21;;;;;;;5.30;1.73;;;17.70;99.90;;;;;;5131866;27;20205;-73
2022/10/06 10:22:48;;;;;;;5.93;1.43;;;17.80;99.90;;;;;;5126568;27;20198;-73
2022/10/06 10:25:29;;;;;;;3.00;1.03;;;17.90;99.90;;;;;;5130102;27;20236;-73
2022/10/06 10:28:05;;;;;;;6.03;1.50;;;18.00;99.90;;;;;;5131595;27;20201;-73
2022/10/06 10:30:32;;;;;;;2.23;1.03;;;18.00;99.90;;;;;;5131819;27;20189;-73
2022/10/06 10:33:07;;;;;;;4.43;1.33;;;18.10;99.90;;;;;;5131583;27;20202;-73
2022/10/06 10:35:37;;;;;;;3.17;1.40;;;18.10;99.90;;;;;;5131511;27;20226;-73
2022/10/06 10:38:07;;;;;;;3.07;1.57;;;18.20;99.90;;;;;;5131459;27;20331;-73
2022/10/06 10:40:38;;;;;;;4.37;1.13;;;18.30;99.90;;;;;;5131623;27;20324;-73
2022/10/06 10:43:26;;;;;;;4.23;1.63;;;18.40;99.90;;;;;;5131556;27;20288;-74
2022/10/06 10:45:59;;;;;;;3.10;1.50;;;18.70;99.90;;;;;;5130831;27;20941;-74
2022/10/06 10:48:32;;;;;;;5.57;1.10;;;18.50;99.90;;;;;;5128295;27;20198;-73
2022/10/06 10:51:05;;;;;;;3.83;1.27;;;18.40;99.90;;;;;;5111844;27;20195;-73
2022/10/06 10:53:40;;;;;;;2.17;1.27;;;18.20;99.90;;;;;;5130960;27;20217;-73
2022/10/06 10:56:10;;;;;;;1.93;1.17;;;18.30;99.90;;;;;;5130896;27;20212;-73
2022/10/06 10:58:40;;;;;;;6.23;1.30;;;18.10;99.90;;;;;;5130753;27;20671;-73
2022/10/06 11:01:17;;;;;;;7.80;1.40;;;18.00;99.90;;;;;;5130776;27;20212;-73
2022/10/06 11:03:55;;;;;;;2.83;0.97;;;17.90;99.90;;;;;;5131269;27;20189;-73
2022/10/06 11:06:53;;;;;;;5.80;1.30;;;18.10;99.90;;;;;;5131184;27;20227;-73
2022/10/06 11:09:25;;;;;;;5.00;1.23;;;18.10;99.90;;;;;;5129711;27;20567;-73
2022/10/06 11:12:03;;;;;;;3.03;1.07;;;18.20;99.90;;;;;;5130605;27;20315;-73
2022/10/06 11:14:45;;;;;;;7.67;1.43;;;18.30;99.90;;;;;;5130356;27;20233;-73
2022/10/06 11:17:23;;;;;;;3.73;1.47;;;18.30;99.90;;;;;;5130923;27;20229;-73
2022/10/06 11:19:58;;;;;;;3.07;1.50;;;18.30;99.90;;;;;;5125055;27;20293;-74
2022/10/06 11:22:31;;;;;;;6.60;1.43;;;18.50;99.90;;;;;;5123738;27;20287;-73
2022/10/06 11:25:12;;;;;;;3.83;1.67;;;18.60;99.90;;;;;;5129886;27;20222;-73
2022/10/06 11:27:48;;;;;;;2.80;1.30;;;18.90;99.90;;;;;;5130605;27;20242;-73
2022/10/06 11:30:18;;;;;;;4.60;1.33;;;18.70;99.90;;;;;;5130544;27;20193;-73
2022/10/06 11:33:00;;;;;;;5.57;1.40;;;18.80;99.90;;;;;;5130400;27;20219;-73
2022/10/06 11:35:34;;;;;;;3.10;1.03;;;18.90;99.90;;;;;;5117183;27;20241;-73
2022/10/06 11:38:04;;;;;;;2.43;1.20;;;18.80;99.90;;;;;;5109907;28;20231;-73
2022/10/06 11:40:38;;;;;;;2.60;1.40;;;19.10;99.90;;;;;;5109561;28;20214;-73
2022/10/06 11:43:14;;;;;;;5.93;1.40;;;19.10;99.90;;;;;;5109510;28;20190;-74
2022/10/06 11:45:48;;;;;;;4.73;1.47;;;19.30;99.90;;;;;;5109302;28;20226;-73
2022/10/06 11:48:24;;;;;;;4.17;1.70;;;19.30;99.90;;;;;;5109618;28;20194;-73
2022/10/06 11:50:54;;;;;;;4.93;2.00;;;19.50;99.90;;;;;;5109847;28;20239;-73
2022/10/06 11:53:40;;;;;;;2.33;1.07;;;19.50;99.90;;;;;;5130138;27;20213;-73
2022/10/06 11:56:43;;;;;;;2.57;1.17;;;19.60;99.90;;;;;;5129972;27;20217;-73
2022/10/06 11:59:27;;;;;;;5.60;1.40;;;19.50;99.90;;;;;;5109252;28;20205;-73
2022/10/06 12:01:59;;;;;;;3.27;1.33;;;19.30;99.90;;;;;;5106955;28;20245;-73
2022/10/06 12:04:26;;;;;;;4.17;1.40;;;19.30;99.90;;;;;;5109450;28;20281;-73
2022/10/06 12:07:05;;;;;;;3.20;1.20;;;19.40;99.90;;;;;;5109215;28;20233;-73
2022/10/06 12:09:45;;;;;;;2.20;1.17;;;19.60;99.90;;;;;;5109218;28;20194;-73
2022/10/06 12:12:55;;;;;;;4.67;1.30;;;19.80;99.90;;;;;;5111042;27;20233;-73
2022/10/06 12:15:41;;;;;;;3.83;1.43;;;20.10;99.90;;;;;;5128680;27;20578;-73
2022/10/06 12:18:24;;;;;;;4.83;1.30;;;20.20;99.90;;;;;;5108946;28;20194;-73
2022/10/06 12:21:05;;;;;;;3.60;1.50;;;20.10;99.90;;;;;;5129012;27;20190;-73
2022/10/06 12:23:43;;;;;;;3.97;1.70;;;20.20;99.50;;;;;;5129430;27;20197;-73
2022/10/06 12:26:22;;;;;;;3.87;1.20;;;20.10;98.90;;;;;;5129038;27;20709;-73
2022/10/06 12:28:54;;;;;;;2.87;1.47;;;20.10;99.30;;;;;;5129129;27;20189;-73
2022/10/06 12:31:44;;;;;;;4.07;1.13;;;20.40;99.20;;;;;;5129155;27;20189;-73
2022/10/06 12:34:43;;;;;;;3.80;1.40;;;20.40;98.60;;;;;;5126893;27;20510;-73
2022/10/06 12:37:32;;;;;;;5.43;1.40;;;20.00;98.90;;;;;;5107940;28;20203;-74
2022/10/06 12:40:32;;;;;;;2.17;1.20;;;19.80;99.70;;;;;;5108709;28;20200;-73
2022/10/06 12:43:26;;;;;;;3.43;1.10;;;20.00;99.90;;;;;;5107951;28;20209;-73
2022/10/06 12:45:58;;;;;;;3.80;1.30;;;20.10;99.30;;;;;;5108210;28;20224;-73
2022/10/06 12:48:30;;;;;;;3.63;1.10;;;20.10;99.60;;;;;;5120036;27;21623;-72
2022/10/06 12:51:03;;;;;;;4.07;1.17;;;19.90;99.90;;;;;;5122500;27;20258;-72
2022/10/06 12:53:34;;;;;;;3.30;1.50;;;20.10;99.90;;;;;;5124681;27;20228;-72
2022/10/06 12:56:04;;;;;;;4.07;1.30;;;20.20;99.90;;;;;;5119510;27;20201;-72
2022/10/06 12:58:33;;;;;;;3.47;1.30;;;20.50;99.90;;;;;;5124988;27;20571;-72
2022/10/06 13:01:03;;;;;;;4.27;1.50;;;20.80;99.20;;;;;;5127711;27;20233;-72
2022/10/06 13:03:30;;;;;;;3.67;1.33;;;20.90;98.70;;;;;;5117224;27;20198;-72
2022/10/06 13:06:01;;;;;;;3.63;1.42;;;20.70;98.70;;;;;;5125262;27;20244;-72
2022/10/06 13:08:29;;;;;;;3.10;1.40;;;20.40;98.50;;;;;;5121873;27;20190;-72
2022/10/06 13:11:11;;;;;;;2.53;1.17;;;20.40;99.10;;;;;;5125088;27;20205;-72
2022/10/06 13:13:46;;;;;;;2.70;1.10;;;20.10;99.30;;;;;;5125404;27;20243;-72
2022/10/06 13:16:13;;;;;;;2.80;1.17;;;20.20;98.50;;;;;;5125958;27;20212;-72
2022/10/06 13:18:40;;;;;;;3.60;1.50;;;20.10;98.30;;;;;;5125772;27;20892;-72
2022/10/06 13:21:12;;;;;;;5.13;1.23;;;20.00;98.60;;;;;;5126455;27;20201;-72